createdAt,value
2018-02-19T00:02:25.046Z,0.60
2018-02-19T00:04:52.607Z,0.60
2018-02-19T00:07:20.077Z,0.60
2018-02-19T00:09:47.543Z,0.50
2018-02-19T00:12:15.017Z,0.60
2018-02-19T00:14:43.253Z,0.50
2018-02-19T00:17:11.375Z,0.50
2018-02-19T00:19:39.642Z,0.40
2018-02-19T00:22:07.927Z,0.40
2018-02-19T00:24:36.158Z,0.40
2018-02-19T00:27:03.639Z,0.40
2018-02-19T00:29:31.160Z,0.40
2018-02-19T00:31:58.627Z,0.30
2018-02-19T00:34:26.101Z,0.30
2018-02-19T00:36:53.622Z,0.40
2018-02-19T00:39:21.111Z,0.40
2018-02-19T00:41:48.582Z,0.40
2018-02-19T00:44:16.063Z,0.30
2018-02-19T00:46:44.283Z,0.40
2018-02-19T00:49:11.764Z,0.40
2018-02-19T00:51:39.243Z,0.40
2018-02-19T00:54:07.506Z,0.40
2018-02-19T00:56:34.990Z,0.40
2018-02-19T00:59:02.567Z,0.40
2018-02-19T01:01:30.041Z,0.40
2018-02-19T01:03:57.507Z,0.50
2018-02-19T01:06:25.834Z,0.50
2018-02-19T01:08:54.096Z,0.50
2018-02-19T01:11:22.422Z,0.50
2018-02-19T01:13:49.951Z,0.50
2018-02-19T01:16:17.426Z,0.50
2018-02-19T01:18:44.898Z,0.60
2018-02-19T01:21:12.373Z,0.50
2018-02-19T01:23:40.716Z,0.50
2018-02-19T01:26:08.206Z,0.50
2018-02-19T01:28:35.838Z,0.50
2018-02-19T01:31:03.318Z,0.60
2018-02-19T01:33:30.802Z,0.60
2018-02-19T01:35:58.254Z,0.60
2018-02-19T01:38:25.731Z,0.70
2018-02-19T01:40:53.967Z,0.60
2018-02-19T01:43:21.426Z,0.60
2018-02-19T01:45:48.902Z,0.60
2018-02-19T01:48:16.363Z,0.60
2018-02-19T01:50:43.819Z,0.60
2018-02-19T01:53:11.291Z,0.60
2018-02-19T01:55:39.547Z,0.70
2018-02-19T01:58:07.023Z,0.60
2018-02-19T02:00:35.271Z,0.70
2018-02-19T02:03:02.730Z,0.70
2018-02-19T02:05:30.188Z,0.70
2018-02-19T02:07:57.690Z,0.70
2018-02-19T02:10:25.141Z,0.70
2018-02-19T02:12:54.542Z,0.70
2018-02-19T02:15:22.122Z,0.70
2018-02-19T02:17:49.635Z,0.70
2018-02-19T02:20:17.865Z,0.70
2018-02-19T02:22:45.339Z,0.70
2018-02-19T02:25:12.812Z,0.80
2018-02-19T02:27:40.278Z,0.80
2018-02-19T02:30:07.743Z,0.80
2018-02-19T02:32:35.984Z,0.90
2018-02-19T02:35:03.430Z,0.80
2018-02-19T02:37:30.965Z,0.90
2018-02-19T02:39:58.472Z,0.90
2018-02-19T02:42:26.290Z,0.90
2018-02-19T02:44:53.758Z,0.90
2018-02-19T02:47:21.209Z,0.90
2018-02-19T02:49:48.671Z,0.90
2018-02-19T02:52:16.142Z,0.90
2018-02-19T02:54:43.602Z,0.90
2018-02-19T02:57:11.064Z,0.90
2018-02-19T02:59:38.534Z,0.90
2018-02-19T03:02:05.999Z,0.90
2018-02-19T03:04:34.247Z,0.90
2018-02-19T03:07:01.757Z,0.90
2018-02-19T03:09:29.270Z,0.90
2018-02-19T03:11:56.734Z,1.00
2018-02-19T03:14:24.215Z,1.10
2018-02-19T03:16:52.439Z,1.20
2018-02-19T03:19:19.952Z,1.10
2018-02-19T03:21:48.188Z,1.20
2018-02-19T03:24:15.655Z,1.20
2018-02-19T03:26:43.118Z,1.30
2018-02-19T03:29:11.379Z,1.30
2018-02-19T03:31:38.843Z,1.30
2018-02-19T03:34:06.303Z,1.40
2018-02-19T03:36:33.787Z,1.40
2018-02-19T03:39:02.019Z,1.50
2018-02-19T03:41:30.122Z,1.40
2018-02-19T03:43:58.363Z,1.40
2018-02-19T03:46:25.819Z,1.40
2018-02-19T03:48:53.278Z,1.50
2018-02-19T03:51:20.780Z,1.50
2018-02-19T03:53:49.006Z,1.50
2018-02-19T03:56:16.476Z,1.50
2018-02-19T03:58:43.951Z,1.50
2018-02-19T04:01:11.418Z,1.50
2018-02-19T04:03:39.648Z,1.50
2018-02-19T04:06:07.130Z,1.40
2018-02-19T04:08:34.596Z,1.40
2018-02-19T04:11:02.050Z,1.40
2018-02-19T04:13:30.300Z,1.50
2018-02-19T04:15:57.763Z,1.50
2018-02-19T04:18:25.230Z,1.50
2018-02-19T04:20:52.707Z,1.50
2018-02-19T04:23:20.942Z,1.40
2018-02-19T04:25:48.403Z,1.40
2018-02-19T04:28:15.881Z,1.40
2018-02-19T04:30:43.351Z,1.40
2018-02-19T04:33:11.584Z,1.30
2018-02-19T04:35:39.046Z,1.30
2018-02-19T04:38:06.511Z,1.40
2018-02-19T04:40:33.979Z,1.40
2018-02-19T04:43:17.098Z,1.40
2018-02-19T04:45:50.234Z,1.40
2018-02-19T04:48:17.724Z,1.50
2018-02-19T04:50:45.263Z,1.50
2018-02-19T04:53:12.717Z,1.50
2018-02-19T04:55:40.187Z,1.50
2018-02-19T04:58:07.663Z,1.50
2018-02-19T05:00:35.117Z,1.50
2018-02-19T05:03:02.604Z,1.50
2018-02-19T05:05:30.830Z,1.50
2018-02-19T05:07:58.300Z,1.40
2018-02-19T05:10:25.787Z,1.40
2018-02-19T05:12:53.250Z,1.40
2018-02-19T05:15:22.401Z,1.50
2018-02-19T05:17:49.927Z,1.40
2018-02-19T05:20:17.392Z,1.50
2018-02-19T05:22:44.859Z,1.50
2018-02-19T05:25:12.328Z,1.50
2018-02-19T05:27:39.831Z,1.50
2018-02-19T05:30:07.291Z,1.40
2018-02-19T05:32:35.547Z,1.40
2018-02-19T05:35:03.042Z,1.40
2018-02-19T05:37:30.495Z,1.50
2018-02-19T05:39:57.982Z,1.50
2018-02-19T05:42:25.443Z,1.40
2018-02-19T05:44:52.905Z,1.40
2018-02-19T05:47:20.395Z,1.50
2018-02-19T05:49:47.861Z,1.50
2018-02-19T05:52:15.313Z,1.50
2018-02-19T05:54:42.797Z,1.50
2018-02-19T05:57:10.267Z,1.50
2018-02-19T05:59:37.782Z,1.40
2018-02-19T06:02:05.214Z,1.40
2018-02-19T06:04:32.696Z,1.30
2018-02-19T06:07:00.149Z,1.30
2018-02-19T06:09:27.630Z,1.30
2018-02-19T06:11:55.863Z,1.20
2018-02-19T06:14:23.322Z,1.20
2018-02-19T06:16:50.813Z,1.20
2018-02-19T06:19:19.043Z,1.20
2018-02-19T06:21:46.508Z,1.20
2018-02-19T06:24:13.986Z,1.20
2018-02-19T06:26:41.451Z,1.20
2018-02-19T06:29:09.680Z,1.20
2018-02-19T06:31:37.155Z,1.20
2018-02-19T06:34:04.613Z,1.20
2018-02-19T06:36:32.070Z,1.20
2018-02-19T06:38:59.551Z,1.20
2018-02-19T06:41:27.778Z,1.20
2018-02-19T06:43:55.293Z,1.20
2018-02-19T06:46:23.531Z,1.20
2018-02-19T06:48:50.987Z,1.20
2018-02-19T06:51:18.462Z,1.20
2018-02-19T06:53:45.971Z,1.20
2018-02-19T06:56:13.431Z,1.20
2018-02-19T06:58:40.895Z,1.20
2018-02-19T07:01:08.378Z,1.20
2018-02-19T07:03:35.859Z,1.20
2018-02-19T07:06:03.315Z,1.20
2018-02-19T07:08:31.582Z,1.20
2018-02-19T07:10:59.045Z,1.20
2018-02-19T07:13:26.505Z,1.30
2018-02-19T07:15:54.767Z,1.30
2018-02-19T07:18:22.238Z,1.30
2018-02-19T07:20:50.469Z,1.30
2018-02-19T07:23:17.955Z,1.30
2018-02-19T07:25:45.418Z,1.30
2018-02-19T07:28:13.648Z,1.30
2018-02-19T07:30:41.134Z,1.30
2018-02-19T07:33:08.603Z,1.40
2018-02-19T07:35:36.071Z,1.40
2018-02-19T07:38:04.315Z,1.50
2018-02-19T07:40:32.789Z,1.40
2018-02-19T07:43:00.253Z,1.50
2018-02-19T07:45:27.727Z,1.50
2018-02-19T07:47:55.226Z,1.60
2018-02-19T07:50:22.700Z,1.50
2018-02-19T07:52:50.177Z,1.60
2018-02-19T07:55:17.649Z,1.70
2018-02-19T07:57:45.110Z,1.70
2018-02-19T08:00:12.590Z,1.80
2018-02-19T08:02:41.509Z,1.80
2018-02-19T08:05:08.963Z,1.80
2018-02-19T08:07:36.434Z,1.90
2018-02-19T08:10:03.903Z,1.90
2018-02-19T08:12:31.397Z,1.80
2018-02-19T08:14:58.854Z,1.90
2018-02-19T08:17:27.092Z,1.80
2018-02-19T08:19:54.550Z,1.80
2018-02-19T08:22:22.015Z,1.80
2018-02-19T08:24:49.510Z,1.90
2018-02-19T08:27:17.742Z,1.90
2018-02-19T08:29:45.272Z,1.90
2018-02-19T08:32:13.458Z,1.90
2018-02-19T08:34:40.923Z,2.00
2018-02-19T08:37:08.424Z,1.90
2018-02-19T08:39:35.891Z,1.90
2018-02-19T08:42:04.130Z,1.80
2018-02-19T08:44:31.621Z,1.80
2018-02-19T08:46:59.881Z,1.90
2018-02-19T08:49:27.343Z,1.90
2018-02-19T08:51:55.586Z,1.90
2018-02-19T08:54:23.047Z,1.90
2018-02-19T08:56:51.355Z,1.90
2018-02-19T08:59:19.594Z,2.00
2018-02-19T09:01:47.064Z,2.00
2018-02-19T09:04:14.526Z,2.10
2018-02-19T09:06:42.051Z,2.10
2018-02-19T09:09:09.529Z,2.10
2018-02-19T09:11:36.994Z,2.20
2018-02-19T09:14:04.479Z,2.20
2018-02-19T09:16:32.706Z,2.30
2018-02-19T09:19:00.947Z,2.20
2018-02-19T09:21:28.436Z,2.20
2018-02-19T09:23:55.902Z,2.30
2018-02-19T09:26:23.386Z,2.40
2018-02-19T09:28:50.863Z,2.30
2018-02-19T09:31:19.085Z,2.30
2018-02-19T09:33:46.559Z,2.30
2018-02-19T09:36:14.071Z,2.30
2018-02-19T09:38:41.514Z,2.30
2018-02-19T09:41:08.984Z,2.40
2018-02-19T09:43:36.463Z,2.40
2018-02-19T09:46:03.929Z,2.30
2018-02-19T09:48:31.411Z,2.40
2018-02-19T09:50:58.887Z,2.50
2018-02-19T09:53:27.123Z,2.50
2018-02-19T09:55:54.587Z,2.50
2018-02-19T09:58:22.077Z,2.60
2018-02-19T10:00:50.311Z,2.60
2018-02-19T10:03:17.779Z,2.60
2018-02-19T10:05:45.298Z,2.60
2018-02-19T10:08:13.504Z,2.70
2018-02-19T10:10:40.965Z,2.70
2018-02-19T10:13:08.459Z,2.80
2018-02-19T10:15:35.927Z,2.70
2018-02-19T10:18:03.392Z,2.70
2018-02-19T10:20:30.862Z,2.70
2018-02-19T10:22:58.327Z,2.70
2018-02-19T10:25:25.803Z,2.80
2018-02-19T10:27:54.831Z,2.80
2018-02-19T10:30:23.092Z,2.90
2018-02-19T10:32:50.543Z,2.80
2018-02-19T10:35:18.014Z,2.80
2018-02-19T10:37:46.252Z,2.80
2018-02-19T10:40:13.710Z,2.80
2018-02-19T10:42:41.199Z,2.90
2018-02-19T10:45:09.468Z,2.90
2018-02-19T10:47:36.976Z,2.90
2018-02-19T10:50:04.458Z,2.90
2018-02-19T10:52:31.942Z,2.80
2018-02-19T10:54:59.395Z,2.80
2018-02-19T10:57:26.872Z,2.90
2018-02-19T10:59:55.115Z,2.90
2018-02-19T11:02:22.579Z,2.90
2018-02-19T11:04:51.728Z,3.10
2018-02-19T11:07:19.191Z,3.00
2018-02-19T11:09:46.655Z,3.10
2018-02-19T11:12:15.779Z,3.20
2018-02-19T11:14:43.244Z,3.10
2018-02-19T11:17:11.524Z,3.10
2018-02-19T11:19:40.498Z,3.20
2018-02-19T11:22:09.515Z,3.30
2018-02-19T11:24:37.748Z,3.40
2018-02-19T11:27:05.227Z,3.40
2018-02-19T11:29:32.690Z,3.40
2018-02-19T11:32:00.155Z,3.40
2018-02-19T11:34:28.431Z,3.50
2018-02-19T11:36:55.978Z,3.50
2018-02-19T11:39:23.435Z,3.40
2018-02-19T11:41:50.910Z,3.50
2018-02-19T11:44:19.148Z,3.70
2018-02-19T11:46:46.625Z,3.70
2018-02-19T11:49:14.102Z,3.70
2018-02-19T11:51:42.340Z,3.80
2018-02-19T11:54:10.027Z,3.80
2018-02-19T11:56:37.495Z,3.90
2018-02-19T11:59:05.808Z,4.00
2018-02-19T12:01:34.043Z,4.00
2018-02-19T12:04:02.287Z,4.10
2018-02-19T12:06:29.778Z,4.10
2018-02-19T12:08:58.231Z,4.10
2018-02-19T12:11:25.695Z,4.10
2018-02-19T12:13:53.167Z,4.10
2018-02-19T12:16:20.626Z,4.20
2018-02-19T12:18:48.891Z,4.40
2018-02-19T12:21:16.360Z,4.40
2018-02-19T12:23:44.590Z,4.30
2018-02-19T12:26:12.051Z,4.30
2018-02-19T12:28:39.562Z,4.30
2018-02-19T12:31:06.997Z,4.30
2018-02-19T12:33:34.472Z,4.40
2018-02-19T12:36:02.704Z,4.40
2018-02-19T12:38:30.166Z,4.40
2018-02-19T12:40:57.691Z,4.30
2018-02-19T12:43:25.159Z,4.40
2018-02-19T12:45:52.627Z,4.50
2018-02-19T12:48:20.102Z,4.60
2018-02-19T12:50:47.563Z,4.50
2018-02-19T12:53:15.023Z,4.50
2018-02-19T12:55:42.512Z,4.40
2018-02-19T12:58:09.971Z,4.60
2018-02-19T13:00:37.450Z,4.70
2018-02-19T13:03:04.927Z,4.60
2018-02-19T13:05:32.374Z,4.60
2018-02-19T13:07:59.915Z,4.60
2018-02-19T13:10:27.379Z,4.50
2018-02-19T13:12:54.848Z,4.40
2018-02-19T13:15:22.356Z,4.40
2018-02-19T13:17:50.615Z,4.40
2018-02-19T13:20:18.074Z,4.40
2018-02-19T13:22:45.547Z,4.40
2018-02-19T13:25:13.785Z,4.30
2018-02-19T13:27:41.239Z,4.30
2018-02-19T13:30:08.714Z,4.30
2018-02-19T13:32:36.181Z,4.30
2018-02-19T13:35:04.415Z,4.40
2018-02-19T13:37:31.907Z,4.30
2018-02-19T13:39:59.363Z,4.40
2018-02-19T13:42:26.818Z,4.40
2018-02-19T13:44:54.303Z,4.40
2018-02-19T13:47:21.764Z,4.40
2018-02-19T13:49:49.223Z,4.40
2018-02-19T13:52:16.709Z,4.40
2018-02-19T13:54:44.183Z,4.30
2018-02-19T13:57:11.659Z,4.30
2018-02-19T13:59:39.153Z,4.40
2018-02-19T14:02:06.652Z,4.40
2018-02-19T14:04:34.103Z,4.40
2018-02-19T14:07:01.567Z,4.40
2018-02-19T14:09:29.054Z,4.40
2018-02-19T14:11:56.508Z,4.40
2018-02-19T14:14:24.762Z,4.50
2018-02-19T14:16:52.335Z,4.50
2018-02-19T14:19:20.307Z,4.50
2018-02-19T14:21:47.776Z,4.50
2018-02-19T14:24:16.014Z,4.50
2018-02-19T14:26:43.497Z,4.50
2018-02-19T14:29:10.970Z,4.50
2018-02-19T14:31:39.195Z,4.50
2018-02-19T14:34:06.661Z,4.50
2018-02-19T14:36:34.161Z,4.50
2018-02-19T14:39:02.387Z,4.60
2018-02-19T14:41:29.886Z,4.50
2018-02-19T14:43:58.134Z,4.60
2018-02-19T14:46:25.595Z,4.60
2018-02-19T14:48:53.172Z,4.50
2018-02-19T14:51:21.505Z,4.40
2018-02-19T14:53:48.884Z,4.40
2018-02-19T14:56:16.355Z,4.40
2018-02-19T14:58:44.095Z,4.40
2018-02-19T15:01:12.545Z,4.50
2018-02-19T15:03:40.001Z,4.50
2018-02-19T15:06:07.467Z,4.60
2018-02-19T15:08:34.957Z,4.60
2018-02-19T15:11:02.419Z,4.60
2018-02-19T15:13:31.623Z,4.60
2018-02-19T15:15:59.878Z,4.60
2018-02-19T15:18:27.338Z,4.60
2018-02-19T15:20:54.834Z,4.60
2018-02-19T15:23:23.119Z,4.50
2018-02-19T15:25:51.359Z,4.50
2018-02-19T15:28:18.831Z,4.50
2018-02-19T15:30:47.055Z,4.40
2018-02-19T15:33:14.548Z,4.40
2018-02-19T15:35:42.012Z,4.40
2018-02-19T15:38:10.276Z,4.40
2018-02-19T15:40:37.736Z,4.40
2018-02-19T15:43:05.197Z,4.40
2018-02-19T15:45:32.651Z,4.40
2018-02-19T15:48:00.141Z,4.40
2018-02-19T15:50:27.611Z,4.40
2018-02-19T15:52:55.063Z,4.40
2018-02-19T15:55:22.538Z,4.40
2018-02-19T15:57:49.995Z,4.30
2018-02-19T16:00:17.451Z,4.30
2018-02-19T16:02:44.934Z,4.30
2018-02-19T16:05:12.403Z,4.20
2018-02-19T16:07:39.868Z,4.30
2018-02-19T16:10:08.131Z,4.20
2018-02-19T16:12:35.602Z,4.20
2018-02-19T16:15:03.070Z,4.10
2018-02-19T16:17:31.330Z,4.10
2018-02-19T16:19:59.594Z,4.10
2018-02-19T16:22:27.055Z,4.00
2018-02-19T16:24:54.531Z,4.00
2018-02-19T16:27:22.772Z,4.00
2018-02-19T16:29:50.262Z,3.90
2018-02-19T16:32:18.502Z,3.90
2018-02-19T16:34:45.980Z,3.90
2018-02-19T16:37:13.439Z,3.90
2018-02-19T16:39:40.915Z,3.90
2018-02-19T16:42:09.167Z,3.90
2018-02-19T16:44:36.632Z,3.90
2018-02-19T16:47:04.171Z,3.80
2018-02-19T16:49:31.656Z,3.80
2018-02-19T16:51:59.889Z,3.70
2018-02-19T16:54:27.406Z,3.70
2018-02-19T16:56:54.900Z,3.70
2018-02-19T16:59:22.385Z,3.70
2018-02-19T17:01:49.879Z,3.70
2018-02-19T17:04:17.326Z,3.70
2018-02-19T17:06:44.810Z,3.70
2018-02-19T17:09:12.292Z,3.80
2018-02-19T17:11:39.797Z,3.70
2018-02-19T17:14:08.251Z,3.70
2018-02-19T17:16:35.743Z,3.70
2018-02-19T17:19:03.220Z,3.70
2018-02-19T17:21:30.722Z,3.70
2018-02-19T17:23:58.201Z,3.70
2018-02-19T17:26:26.455Z,3.70
2018-02-19T17:28:53.938Z,3.70
2018-02-19T17:31:22.167Z,3.70
2018-02-19T17:33:49.683Z,3.70
2018-02-19T17:36:17.165Z,3.70
2018-02-19T17:38:44.666Z,3.70
2018-02-19T17:41:12.139Z,3.60
2018-02-19T17:43:39.735Z,3.70
2018-02-19T17:46:07.242Z,3.70
2018-02-19T17:48:34.719Z,3.60
2018-02-19T17:51:03.135Z,3.70
2018-02-19T17:53:30.622Z,3.70
2018-02-19T17:55:58.091Z,3.70
2018-02-19T17:58:26.355Z,3.70
2018-02-19T18:00:53.843Z,3.70
2018-02-19T18:03:22.115Z,3.70
2018-02-19T18:08:24.319Z,3.60
2018-02-19T18:10:51.783Z,3.60
2018-02-19T18:13:19.241Z,3.60
2018-02-19T18:15:46.715Z,3.60
2018-02-19T18:18:14.190Z,3.60
2018-02-19T18:20:41.656Z,3.60
2018-02-19T18:23:09.128Z,3.50
2018-02-19T18:25:37.365Z,3.50
2018-02-19T18:28:04.838Z,3.40
2018-02-19T18:30:32.387Z,3.40
2018-02-19T18:33:02.286Z,3.40
2018-02-19T18:35:30.580Z,3.40
2018-02-19T18:37:58.096Z,3.40
2018-02-19T18:40:25.568Z,3.40
2018-02-19T18:42:53.042Z,3.40
2018-02-19T18:45:20.566Z,3.40
2018-02-19T18:47:49.959Z,3.40
2018-02-19T18:50:18.182Z,3.30
2018-02-19T18:52:45.721Z,3.30
2018-02-19T18:55:13.223Z,3.30
2018-02-19T18:57:40.679Z,3.30
2018-02-19T19:00:08.918Z,3.30
2018-02-19T19:02:36.427Z,3.20
2018-02-19T19:05:05.708Z,3.30
2018-02-19T19:07:45.143Z,3.30
2018-02-19T19:10:37.411Z,3.30
2018-02-19T19:13:05.667Z,3.20
2018-02-19T19:15:33.920Z,3.20
2018-02-19T19:18:01.389Z,3.20
2018-02-19T19:20:30.710Z,3.20
2018-02-19T19:22:58.955Z,3.30
2018-02-19T19:25:26.422Z,3.30
2018-02-19T19:27:53.898Z,3.20
2018-02-19T19:30:22.120Z,3.30
2018-02-19T19:32:49.607Z,3.30
2018-02-19T19:35:17.113Z,3.30
2018-02-19T19:37:44.636Z,3.30
2018-02-19T19:40:12.871Z,3.30
2018-02-19T19:42:40.356Z,3.30
2018-02-19T19:45:07.827Z,3.30
2018-02-19T19:47:36.087Z,3.30
2018-02-19T19:50:03.593Z,3.30
2018-02-19T19:52:31.056Z,3.30
2018-02-19T19:54:58.520Z,3.30
2018-02-19T19:57:26.015Z,3.30
2018-02-19T19:59:53.479Z,3.30
2018-02-19T20:02:20.934Z,3.30
2018-02-19T20:04:48.411Z,3.30
2018-02-19T20:07:17.570Z,3.30
2018-02-19T20:09:45.042Z,3.30
2018-02-19T20:12:12.522Z,3.30
2018-02-19T20:14:40.775Z,3.30
2018-02-19T20:17:08.243Z,3.30
2018-02-19T20:19:36.512Z,3.30
2018-02-19T20:22:04.737Z,3.30
2018-02-19T20:24:32.203Z,3.30
2018-02-19T20:26:59.675Z,3.30
2018-02-19T20:29:27.147Z,3.30
2018-02-19T20:31:54.620Z,3.30
2018-02-19T20:34:22.087Z,3.20
2018-02-19T20:36:50.311Z,3.30
2018-02-19T20:39:17.797Z,3.20
2018-02-19T20:41:45.323Z,3.20
2018-02-19T20:44:12.992Z,3.30
2018-02-19T20:46:40.455Z,3.30
2018-02-19T20:49:07.998Z,3.20
2018-02-19T20:51:35.483Z,3.20
2018-02-19T20:54:02.946Z,3.30
2018-02-19T20:56:30.418Z,3.30
2018-02-19T20:58:58.658Z,3.30
2018-02-19T21:01:26.132Z,3.20
2018-02-19T21:03:53.602Z,3.20
2018-02-19T21:06:22.123Z,3.20
2018-02-19T21:08:49.593Z,3.20
2018-02-19T21:11:17.067Z,3.30
2018-02-19T21:13:44.548Z,3.30
2018-02-19T21:16:12.047Z,3.20
2018-02-19T21:18:39.539Z,3.20
2018-02-19T21:21:07.003Z,3.20
2018-02-19T21:23:34.480Z,3.20
2018-02-19T21:26:02.755Z,3.20
2018-02-19T21:28:30.229Z,3.20
2018-02-19T21:30:58.465Z,3.20
2018-02-19T21:33:25.938Z,3.10
2018-02-19T21:35:53.559Z,3.10
2018-02-19T21:38:21.888Z,3.20
2018-02-19T21:40:50.115Z,3.10
2018-02-19T21:43:17.606Z,3.10
2018-02-19T21:45:45.090Z,3.10
2018-02-19T21:48:13.355Z,3.10
2018-02-19T21:50:41.580Z,3.10
2018-02-19T21:53:09.077Z,3.10
2018-02-19T21:55:37.312Z,3.10
2018-02-19T21:58:04.792Z,3.10
2018-02-19T22:00:32.280Z,3.10
2018-02-19T22:03:00.507Z,3.10
2018-02-19T22:05:27.969Z,3.00
2018-02-19T22:07:55.470Z,3.00
2018-02-19T22:10:23.710Z,3.10
2018-02-19T22:12:51.176Z,3.00
2018-02-19T22:15:18.654Z,3.10
2018-02-19T22:17:47.262Z,3.00
2018-02-19T22:20:14.831Z,3.00
2018-02-19T22:22:42.283Z,3.00
2018-02-19T22:25:09.780Z,3.00
2018-02-19T22:27:37.235Z,3.00
2018-02-19T22:30:04.705Z,2.90
2018-02-19T22:32:32.172Z,2.80
2018-02-19T22:34:59.639Z,2.80
2018-02-19T22:37:27.869Z,2.60
2018-02-19T22:39:55.342Z,2.60
2018-02-19T22:42:22.815Z,2.60
2018-02-19T22:44:51.055Z,2.50
2018-02-19T22:47:18.531Z,2.40
2018-02-19T22:49:46.025Z,2.40
2018-02-19T22:52:14.252Z,2.40
2018-02-19T22:54:41.734Z,2.40
2018-02-19T22:57:09.189Z,2.30
2018-02-19T22:59:36.660Z,2.30
2018-02-19T23:02:04.899Z,2.20
2018-02-19T23:04:32.359Z,2.20
2018-02-19T23:06:59.835Z,2.10
2018-02-19T23:09:27.323Z,2.10
2018-02-19T23:11:54.793Z,2.00
2018-02-19T23:14:22.258Z,1.90
2018-02-19T23:16:49.731Z,1.90
2018-02-19T23:19:17.197Z,1.90
2018-02-19T23:21:44.650Z,1.80
2018-02-19T23:24:12.357Z,1.80
2018-02-19T23:26:40.582Z,1.60
2018-02-19T23:29:08.050Z,1.60
2018-02-19T23:31:35.531Z,1.60
2018-02-19T23:34:03.003Z,1.50
2018-02-19T23:36:31.244Z,1.40
2018-02-19T23:38:58.720Z,1.40
2018-02-19T23:41:26.951Z,1.30
2018-02-19T23:43:54.428Z,1.30
2018-02-19T23:46:21.906Z,1.30
2018-02-19T23:48:49.376Z,1.20
2018-02-19T23:51:18.415Z,1.20
2018-02-19T23:53:45.895Z,1.20
2018-02-19T23:56:13.361Z,1.20
2018-02-19T23:58:40.823Z,1.10
